createdAt,value
2023-01-19T00:00:22.182Z,71.95
2023-01-19T00:03:23.657Z,71.68
2023-01-19T00:06:26.189Z,72.70
2023-01-19T00:09:32.613Z,72.69
2023-01-19T00:12:34.033Z,71.89
2023-01-19T00:15:38.735Z,72.11
2023-01-19T00:18:41.304Z,72.20
2023-01-19T00:21:43.838Z,71.65
2023-01-19T00:24:45.291Z,72.32
2023-01-19T00:27:49.840Z,72.49
2023-01-19T00:30:51.850Z,72.28
2023-01-19T00:33:54.416Z,72.32
2023-01-19T00:36:57.002Z,71.83
2023-01-19T00:39:59.137Z,72.40
2023-01-19T00:43:02.155Z,72.15
2023-01-19T00:46:04.411Z,72.38
2023-01-19T00:49:07.129Z,71.92
2023-01-19T00:52:08.599Z,72.02
2023-01-19T00:55:12.461Z,70.94
2023-01-19T00:58:15.143Z,70.99
2023-01-19T01:01:17.455Z,71.73
2023-01-19T01:04:20.087Z,71.66
2023-01-19T01:07:22.110Z,71.61
2023-01-19T01:10:26.833Z,72.01
2023-01-19T01:13:29.852Z,71.92
2023-01-19T01:16:32.156Z,70.80
2023-01-19T01:19:34.906Z,71.80
2023-01-19T01:22:38.339Z,71.62
2023-01-19T01:25:41.305Z,72.02
2023-01-19T01:28:44.044Z,72.17
2023-01-19T01:31:46.207Z,72.38
2023-01-19T01:34:48.800Z,72.17
2023-01-19T01:37:50.161Z,71.80
2023-01-19T01:40:52.745Z,72.01
2023-01-19T01:43:57.677Z,72.36
2023-01-19T01:47:12.124Z,72.12
2023-01-19T01:50:16.615Z,71.86
2023-01-19T01:56:44.159Z,72.55
2023-01-19T01:59:49.308Z,72.35
2023-01-19T02:02:52.537Z,72.78
2023-01-19T02:05:56.685Z,72.54
2023-01-19T02:09:22.862Z,72.45
2023-01-19T02:12:42.792Z,72.44
2023-01-19T02:15:44.116Z,72.55
2023-01-19T02:18:47.411Z,72.86
2023-01-19T02:21:55.628Z,72.04
2023-01-19T02:24:58.102Z,73.04
2023-01-19T02:28:01.474Z,73.79
2023-01-19T02:31:02.952Z,72.92
2023-01-19T02:34:07.065Z,73.40
2023-01-19T02:37:11.711Z,73.08
2023-01-19T02:40:20.237Z,72.90
2023-01-19T02:43:24.924Z,72.95
2023-01-19T02:46:26.307Z,72.45
2023-01-19T02:49:29.373Z,73.26
2023-01-19T02:52:32.036Z,72.57
2023-01-19T02:55:34.086Z,72.70
2023-01-19T02:58:43.924Z,72.42
2023-01-19T03:02:04.269Z,72.97
2023-01-19T03:05:26.830Z,72.97
2023-01-19T03:08:40.944Z,73.15
2023-01-19T03:11:51.453Z,72.79
2023-01-19T03:14:58.846Z,73.01
2023-01-19T03:18:01.780Z,72.41
2023-01-19T03:21:08.018Z,72.76
2023-01-19T03:24:11.960Z,72.30
2023-01-19T03:27:18.878Z,72.63
2023-01-19T03:33:50.831Z,72.00
2023-01-19T03:36:54.525Z,72.54
2023-01-19T03:39:57.308Z,72.76
2023-01-19T03:43:02.259Z,73.09
2023-01-19T03:46:05.044Z,73.06
2023-01-19T03:49:08.920Z,72.93
2023-01-19T03:52:11.725Z,72.62
2023-01-19T03:55:14.438Z,72.89
2023-01-19T03:58:17.771Z,73.03
2023-01-19T04:01:21.915Z,72.50
2023-01-19T04:04:25.949Z,72.36
2023-01-19T04:07:27.760Z,73.07
2023-01-19T04:10:29.029Z,72.94
2023-01-19T04:13:31.014Z,72.55
2023-01-19T04:16:33.588Z,72.76
2023-01-19T04:19:34.840Z,72.65
2023-01-19T04:22:38.064Z,72.74
2023-01-19T04:25:39.631Z,72.55
2023-01-19T04:32:04.187Z,72.66
2023-01-19T04:35:06.308Z,71.85
2023-01-19T04:38:08.838Z,71.69
2023-01-19T04:41:10.146Z,71.40
2023-01-19T04:44:13.352Z,71.48
2023-01-19T04:47:15.950Z,71.77
2023-01-19T04:50:17.445Z,71.33
2023-01-19T04:53:20.006Z,71.64
2023-01-19T04:56:21.358Z,71.85
2023-01-19T04:59:24.663Z,71.35
2023-01-19T05:02:27.804Z,71.79
2023-01-19T05:05:29.396Z,71.40
2023-01-19T05:08:31.944Z,72.17
2023-01-19T05:11:33.328Z,71.88
2023-01-19T05:14:35.382Z,72.34
2023-01-19T05:17:36.657Z,71.96
2023-01-19T05:20:38.805Z,72.03
2023-01-19T05:23:41.659Z,71.82
2023-01-19T05:26:44.309Z,71.25
2023-01-19T05:29:46.276Z,72.20
2023-01-19T05:32:47.626Z,71.20
2023-01-19T05:35:50.492Z,72.19
2023-01-19T05:38:51.783Z,72.49
2023-01-19T05:41:54.589Z,72.68
2023-01-19T05:44:57.767Z,73.30
2023-01-19T05:47:59.077Z,73.35
2023-01-19T05:51:01.188Z,73.17
2023-01-19T05:54:03.805Z,73.39
2023-01-19T05:57:05.161Z,73.29
2023-01-19T06:00:08.932Z,73.69
2023-01-19T06:03:11.703Z,74.17
2023-01-19T06:06:14.256Z,74.14
2023-01-19T06:09:16.544Z,73.52
2023-01-19T06:12:18.818Z,72.54
2023-01-19T06:15:22.064Z,72.56
2023-01-19T06:18:23.404Z,72.43
2023-01-19T06:21:24.788Z,71.23
2023-01-19T06:24:29.814Z,71.91
2023-01-19T06:27:32.642Z,71.83
2023-01-19T06:30:34.663Z,71.20
2023-01-19T06:36:57.531Z,70.91
2023-01-19T06:43:21.219Z,71.68
2023-01-19T06:46:23.207Z,71.89
2023-01-19T06:49:25.872Z,70.75
2023-01-19T06:52:27.765Z,70.87
2023-01-19T06:55:30.347Z,69.98
2023-01-19T06:58:33.055Z,71.33
2023-01-19T07:01:36.633Z,72.19
2023-01-19T07:04:37.962Z,71.79
2023-01-19T07:07:41.036Z,72.35
2023-01-19T07:11:26.263Z,72.66
2023-01-19T07:14:05.216Z,72.47
2023-01-19T07:17:09.180Z,71.64
2023-01-19T07:20:13.562Z,72.18
2023-01-19T07:23:16.386Z,72.01
2023-01-19T07:26:20.442Z,71.84
2023-01-19T07:29:42.444Z,71.01
2023-01-19T07:32:45.706Z,70.65
2023-01-19T07:35:47.491Z,69.89
2023-01-19T07:42:09.765Z,71.21
2023-01-19T07:45:11.591Z,71.49
2023-01-19T07:51:34.547Z,71.31
2023-01-19T07:54:35.840Z,71.10
2023-01-19T07:57:37.406Z,70.95
2023-01-19T08:00:38.894Z,70.97
2023-01-19T08:03:42.920Z,70.68
2023-01-19T08:06:47.190Z,71.21
2023-01-19T08:09:48.742Z,71.10
2023-01-19T08:12:51.378Z,70.95
2023-01-19T08:15:53.792Z,70.53
2023-01-19T08:18:57.001Z,70.05
2023-01-19T08:21:59.359Z,69.08
2023-01-19T08:25:01.903Z,70.03
2023-01-19T08:31:27.887Z,69.96
2023-01-19T08:34:30.792Z,69.02
2023-01-19T08:37:34.261Z,68.80
2023-01-19T08:40:38.301Z,68.31
2023-01-19T08:43:40.874Z,66.99
2023-01-19T08:46:42.416Z,66.62
2023-01-19T08:49:44.726Z,66.42
2023-01-19T08:52:46.002Z,66.36
2023-01-19T08:55:48.580Z,65.44
2023-01-19T08:59:03.483Z,65.66
2023-01-19T09:02:10.166Z,66.30
2023-01-19T09:05:14.275Z,67.20
2023-01-19T09:08:16.278Z,66.89
2023-01-19T09:11:17.949Z,65.76
2023-01-19T09:14:20.534Z,65.50
2023-01-19T09:17:22.110Z,66.40
2023-01-19T09:20:25.438Z,65.83
2023-01-19T09:23:27.198Z,65.46
2023-01-19T09:26:31.645Z,65.52
2023-01-19T09:29:35.437Z,63.31
2023-01-19T09:32:38.089Z,64.47
2023-01-19T09:35:42.276Z,65.05
2023-01-19T09:38:43.618Z,63.93
2023-01-19T09:41:50.777Z,63.66
2023-01-19T09:44:54.263Z,63.92
2023-01-19T09:47:58.263Z,63.24
2023-01-19T09:51:05.212Z,61.95
2023-01-19T09:54:12.842Z,61.74
2023-01-19T09:57:15.804Z,62.49
2023-01-19T10:00:18.183Z,61.25
2023-01-19T10:03:20.287Z,61.79
2023-01-19T10:06:22.829Z,59.60
2023-01-19T10:09:31.233Z,59.35
2023-01-19T10:12:43.830Z,57.67
2023-01-19T10:15:53.447Z,57.58
2023-01-19T10:19:01.502Z,57.39
2023-01-19T10:22:18.256Z,56.44
2023-01-19T10:25:24.245Z,58.03
2023-01-19T10:28:26.899Z,54.63
2023-01-19T10:31:29.581Z,55.05
2023-01-19T10:34:32.198Z,54.38
2023-01-19T10:37:38.753Z,53.56
2023-01-19T10:40:49.449Z,51.58
2023-01-19T10:44:01.264Z,52.60
2023-01-19T10:47:05.849Z,51.91
2023-01-19T10:50:24.729Z,51.30
2023-01-19T10:53:28.611Z,50.89
2023-01-19T10:56:34.140Z,50.43
2023-01-19T10:59:39.680Z,49.36
2023-01-19T11:02:52.265Z,50.56
2023-01-19T11:05:54.555Z,51.27
2023-01-19T11:09:17.336Z,50.16
2023-01-19T11:12:21.834Z,51.05
2023-01-19T11:15:26.613Z,51.22
2023-01-19T11:18:31.429Z,50.81
2023-01-19T11:21:33.178Z,48.86
2023-01-19T11:24:41.795Z,48.89
2023-01-19T11:27:50.033Z,48.34
2023-01-19T11:30:56.044Z,47.20
2023-01-19T11:34:00.279Z,46.77
2023-01-19T11:37:04.290Z,48.41
2023-01-19T11:40:14.342Z,48.37
2023-01-19T11:43:18.523Z,47.74
2023-01-19T11:46:22.661Z,47.38
2023-01-19T11:49:33.964Z,49.82
2023-01-19T11:52:43.192Z,47.75
2023-01-19T11:55:53.549Z,48.32
2023-01-19T11:58:55.629Z,47.38
2023-01-19T12:02:01.853Z,47.52
2023-01-19T12:05:09.250Z,48.77
2023-01-19T12:08:16.870Z,49.06
2023-01-19T12:11:24.592Z,50.20
2023-01-19T12:14:32.732Z,48.67
2023-01-19T12:17:37.701Z,49.91
2023-01-19T12:20:44.905Z,50.89
2023-01-19T12:24:00.547Z,51.71
2023-01-19T12:27:14.806Z,51.37
2023-01-19T12:30:20.757Z,52.50
2023-01-19T12:33:36.349Z,52.22
2023-01-19T12:36:38.480Z,52.63
2023-01-19T12:39:49.053Z,53.10
2023-01-19T12:42:58.230Z,53.54
2023-01-19T12:46:00.100Z,53.16
2023-01-19T12:49:04.719Z,53.59
2023-01-19T12:52:25.120Z,54.63
2023-01-19T12:55:31.515Z,53.65
2023-01-19T12:58:33.807Z,54.33
2023-01-19T13:01:35.254Z,54.95
2023-01-19T13:04:36.648Z,53.94
2023-01-19T13:08:13.040Z,54.61
2023-01-19T13:11:20.460Z,55.36
2023-01-19T13:14:35.615Z,55.78
2023-01-19T13:17:50.442Z,55.68
2023-01-19T13:20:56.650Z,55.77
2023-01-19T13:24:01.334Z,55.46
2023-01-19T13:27:04.235Z,55.58
2023-01-19T13:30:13.093Z,55.63
2023-01-19T13:33:20.682Z,55.22
2023-01-19T13:36:26.706Z,55.79
2023-01-19T13:39:31.161Z,56.91
2023-01-19T13:42:35.713Z,56.28
2023-01-19T13:45:39.288Z,56.18
2023-01-19T13:48:54.955Z,56.78
2023-01-19T13:52:07.100Z,56.99
2023-01-19T13:55:15.243Z,55.81
2023-01-19T13:58:23.252Z,56.81
2023-01-19T14:01:28.995Z,57.06
2023-01-19T14:04:33.735Z,56.11
2023-01-19T14:07:35.345Z,55.92
2023-01-19T14:10:39.964Z,56.66
2023-01-19T14:13:44.072Z,56.60
2023-01-19T14:16:46.090Z,57.11
2023-01-19T14:19:50.490Z,56.77
2023-01-19T14:22:53.290Z,57.11
2023-01-19T14:25:55.938Z,56.49
2023-01-19T14:28:57.724Z,56.57
2023-01-19T14:32:14.548Z,56.84
2023-01-19T14:35:24.569Z,56.52
2023-01-19T14:38:30.222Z,56.84
2023-01-19T14:41:40.041Z,56.98
2023-01-19T14:44:47.642Z,57.96
2023-01-19T14:47:57.539Z,58.19
2023-01-19T14:51:04.324Z,58.12
2023-01-19T14:54:12.915Z,58.14
2023-01-19T14:57:14.846Z,59.37
2023-01-19T15:00:19.659Z,59.80
2023-01-19T15:03:26.843Z,59.37
2023-01-19T15:06:38.308Z,59.35
2023-01-19T15:09:42.370Z,59.24
2023-01-19T15:12:45.994Z,59.45
2023-01-19T15:15:51.358Z,60.36
2023-01-19T15:18:53.529Z,59.28
2023-01-19T15:21:54.922Z,60.14
2023-01-19T15:25:00.440Z,60.65
2023-01-19T15:28:04.958Z,59.92
2023-01-19T15:31:06.402Z,60.52
2023-01-19T15:34:12.043Z,60.49
2023-01-19T15:37:14.958Z,60.71
2023-01-19T15:40:18.200Z,60.64
2023-01-19T15:43:21.929Z,60.72
2023-01-19T15:46:26.611Z,60.61
2023-01-19T15:49:30.160Z,61.74
2023-01-19T15:52:33.136Z,61.81
2023-01-19T15:55:35.294Z,61.63
2023-01-19T15:58:38.195Z,62.34
2023-01-19T16:01:40.165Z,62.66
2023-01-19T16:04:43.819Z,62.79
2023-01-19T16:07:47.065Z,62.78
2023-01-19T16:10:51.240Z,62.39
2023-01-19T16:13:52.874Z,62.97
2023-01-19T16:16:54.674Z,63.86
2023-01-19T16:20:00.293Z,63.51
2023-01-19T16:23:14.163Z,63.24
2023-01-19T16:29:47.787Z,64.07
2023-01-19T16:32:50.696Z,64.46
2023-01-19T16:39:17.962Z,64.78
2023-01-19T16:42:19.773Z,64.18
2023-01-19T16:45:22.781Z,64.49
2023-01-19T16:48:24.929Z,64.57
2023-01-19T16:51:28.898Z,64.65
2023-01-19T16:54:31.535Z,64.49
2023-01-19T16:57:34.180Z,64.21
2023-01-19T17:00:36.439Z,64.62
2023-01-19T17:03:39.266Z,64.78
2023-01-19T17:06:41.575Z,64.47
2023-01-19T17:09:42.996Z,64.41
2023-01-19T17:12:45.554Z,64.80
2023-01-19T17:15:47.225Z,63.82
2023-01-19T17:18:50.423Z,64.49
2023-01-19T17:21:55.511Z,64.88
2023-01-19T17:24:56.924Z,65.09
2023-01-19T17:28:01.585Z,65.59
2023-01-19T17:31:07.793Z,65.03
2023-01-19T17:34:10.896Z,64.16
2023-01-19T17:37:13.073Z,65.18
2023-01-19T17:40:16.367Z,65.34
2023-01-19T17:43:17.843Z,65.83
2023-01-19T17:46:22.249Z,64.59
2023-01-19T17:49:25.886Z,64.61
2023-01-19T17:52:29.195Z,64.09
2023-01-19T18:02:13.728Z,64.48
2023-01-19T18:05:16.787Z,65.11
2023-01-19T18:08:19.028Z,65.51
2023-01-19T18:11:21.492Z,65.50
2023-01-19T18:14:23.339Z,64.42
2023-01-19T18:17:25.962Z,64.06
2023-01-19T18:20:27.291Z,64.13
2023-01-19T18:23:30.494Z,64.66
2023-01-19T18:26:34.719Z,63.81
2023-01-19T18:29:36.046Z,64.50
2023-01-19T18:32:38.568Z,64.53
2023-01-19T18:35:39.856Z,64.54
2023-01-19T18:38:43.315Z,64.27
2023-01-19T18:41:44.685Z,64.32
2023-01-19T18:44:46.034Z,63.94
2023-01-19T18:47:47.728Z,64.00
2023-01-19T18:50:51.034Z,64.31
2023-01-19T18:53:54.319Z,63.76
2023-01-19T18:56:56.079Z,63.37
2023-01-19T18:59:58.596Z,63.65
2023-01-19T19:03:00.605Z,64.13
2023-01-19T19:06:03.129Z,65.28
2023-01-19T19:09:05.585Z,64.12
2023-01-19T19:12:08.927Z,64.25
2023-01-19T19:15:11.528Z,64.89
2023-01-19T19:18:12.968Z,64.94
2023-01-19T19:21:15.450Z,64.65
2023-01-19T19:24:17.645Z,64.93
2023-01-19T19:27:19.024Z,65.61
2023-01-19T19:30:21.075Z,65.90
2023-01-19T19:33:23.579Z,65.43
2023-01-19T19:36:26.863Z,64.56
2023-01-19T19:39:29.427Z,64.97
2023-01-19T19:42:30.709Z,64.88
2023-01-19T19:45:34.525Z,64.56
2023-01-19T19:48:39.210Z,65.24
2023-01-19T19:51:41.464Z,63.80
2023-01-19T19:54:44.406Z,64.66
2023-01-19T19:57:48.012Z,64.97
2023-01-19T20:00:49.788Z,65.73
2023-01-19T20:03:52.396Z,65.88
2023-01-19T20:06:53.725Z,65.58
2023-01-19T20:09:55.987Z,65.52
2023-01-19T20:12:57.463Z,65.51
2023-01-19T20:16:01.417Z,65.49
2023-01-19T20:19:03.557Z,65.35
2023-01-19T20:22:04.838Z,65.58
2023-01-19T20:25:07.849Z,65.72
2023-01-19T20:28:10.610Z,66.36
2023-01-19T20:31:15.450Z,64.72
2023-01-19T20:34:20.611Z,66.25
2023-01-19T20:37:24.065Z,66.76
2023-01-19T20:40:26.747Z,65.91
2023-01-19T20:43:29.627Z,65.93
2023-01-19T20:46:31.008Z,66.83
2023-01-19T20:49:32.384Z,67.17
2023-01-19T20:52:34.772Z,66.68
2023-01-19T20:55:39.280Z,66.74
2023-01-19T20:58:42.129Z,67.27
2023-01-19T21:01:45.310Z,67.80
2023-01-19T21:04:48.202Z,67.55
2023-01-19T21:07:49.811Z,67.35
2023-01-19T21:10:56.678Z,67.16
2023-01-19T21:13:58.067Z,67.30
2023-01-19T21:17:01.644Z,68.33
2023-01-19T21:20:05.826Z,68.02
2023-01-19T21:23:07.635Z,67.75
2023-01-19T21:26:12.625Z,68.47
2023-01-19T21:29:15.270Z,68.47
2023-01-19T21:32:17.819Z,67.81
2023-01-19T21:35:20.333Z,67.99
2023-01-19T21:38:22.797Z,66.96
2023-01-19T21:41:26.033Z,68.32
2023-01-19T21:44:27.356Z,68.57
2023-01-19T21:54:19.827Z,69.55
2023-01-19T21:57:23.246Z,70.05
2023-01-19T22:00:26.157Z,69.84
2023-01-19T22:03:28.656Z,69.13
2023-01-19T22:06:31.177Z,69.52
2023-01-19T22:09:34.308Z,69.80
2023-01-19T22:12:39.294Z,69.46
2023-01-19T22:15:42.133Z,69.40
2023-01-19T22:18:45.483Z,69.96
2023-01-19T22:21:48.069Z,70.49
2023-01-19T22:24:49.664Z,70.34
2023-01-19T22:27:52.853Z,70.63
2023-01-19T22:30:54.289Z,70.80
2023-01-19T22:33:57.860Z,70.96
2023-01-19T22:37:00.718Z,69.48
2023-01-19T22:40:02.146Z,70.26
2023-01-19T22:43:05.412Z,71.50
2023-01-19T22:46:08.712Z,71.42
2023-01-19T22:49:15.556Z,71.77
2023-01-19T22:52:17.017Z,71.51
2023-01-19T22:55:20.505Z,71.65
2023-01-19T22:58:23.924Z,71.02
2023-01-19T23:01:27.429Z,71.38
2023-01-19T23:04:30.096Z,71.67
2023-01-19T23:07:32.709Z,71.93
2023-01-19T23:10:38.540Z,72.29
2023-01-19T23:13:40.842Z,72.27
2023-01-19T23:16:43.477Z,72.15
2023-01-19T23:19:45.940Z,72.42
2023-01-19T23:22:48.233Z,72.28
2023-01-19T23:29:14.314Z,72.14
2023-01-19T23:32:16.941Z,72.19
2023-01-19T23:38:41.485Z,72.21
2023-01-19T23:41:43.303Z,71.93
2023-01-19T23:44:46.684Z,72.35
2023-01-19T23:47:48.138Z,72.29
2023-01-19T23:50:50.825Z,72.99
2023-01-19T23:53:52.965Z,72.86
2023-01-19T23:56:56.184Z,72.98
2023-01-19T23:59:58.917Z,71.70
